METAR stanice u blizini

 

LYBE - Beograd / Surčin, Srbija
Ažurirano: 18/01/2018 00:30
Vedro
Vedro
 Pravac vetra Z
Vetar: Z 24 km/h
Temperatura: 2°C
Osećaj hladnoće: -3°C
Tačka rose: -2°C
Vlažnost: 75%
Pritisak: 1007 hPa
Pregled: Vedro
Vidljivost: greater than 10 km
2018/01/17 23:30 LYBE 172330Z 28013KT CAVOK 02/M02 Q1007 NOSIG
LYBT - Beograd / Batajnica, Srbija
Ažurirano: 18/01/2018 00:30
Vedro
Vedro
 Pravac vetra Z
Vetar: Z 22 km/h
Temperatura: 3°C
Osećaj hladnoće: -2°C
Tačka rose: -3°C
Vlažnost: 65%
Pritisak: 1007 hPa
Pregled: Vedro
Vidljivost: greater than 10 km
2018/01/17 23:30 LYBT 172330Z 26012KT CAVOK 03/M03 Q1007 NOSIG
LYVR - Vršac, Srbija
Ažurirano: 18/01/2018 00:30
Vedro
Vedro
 Pravac vetra SZ
Vetar: SZ 11 km/h
Temperatura: 1°C
Osećaj hladnoće: -2°C
Tačka rose: -1°C
Vlažnost: 87%
Pritisak: 1005 hPa
Pregled: Vedro
Vidljivost: greater than 10 km
2018/01/17 23:30 LYVR 172330Z 31006KT 280V340 CAVOK 01/M01 Q1005 R01/////// NOSIG
 
LYKV - Lađevci, Srbija
Ažurirano: 18/01/2018 00:30
Mostly Cloudy
Mostly Cloudy
 Pravac vetra SZ
Vetar: SZ 17 km/h
Temperatura: 3°C
Osećaj hladnoće: -1°C
Tačka rose: -2°C
Vlažnost: 70%
Pritisak: 1008 hPa
Oblaci: Mostly Cloudy
Vidljivost: 10 km
Cloud details: Mostly Cloudy 1128 m
2018/01/17 23:30 LYKV 172330Z 31009KT 280V340 9999 BKN037 03/M02 Q1008 NOSIG
LYNI - Niš, Srbija
Ažurirano: 18/01/2018 00:30
Mostly Cloudy
Mostly Cloudy
 Pravac vetra SZ
Vetar: SZ 48 km/h, Maks.: 78 km/h
Temperatura: 3°C
Osećaj hladnoće: -4°C
Tačka rose: -1°C
Vlažnost: 75%
Pritisak: 1002 hPa
Oblaci: Mostly Cloudy
Vidljivost: 10 km
Cloud details: Few Clouds 457 m
Mostly Cloudy 823 m
2018/01/17 23:30 LYNI 172330Z 32026G42KT 9999 FEW015 BKN027 03/M01 Q1002 R11///////
BKPR - Priština, Srbija
Ažurirano: 18/01/2018 00:30
Light snow grains, Pretežno oblačno
Light snow grains, Pretežno oblačno
 Pravac vetra SSZ
Vetar: SSZ 30 km/h
Temperatura: 2°C
Osećaj hladnoće: -3°C
Tačka rose: -5°C
Vlažnost: 60%
Pritisak: 1004 hPa
Pregled: Light Snow Grains
Oblaci: Mostly Cloudy
Vidljivost: 10 km
Cloud details: Partly Cloudy 762 m
Mostly Cloudy 1219 m
2018/01/17 23:30 BKPR 172330Z 33016KT 9999 -SG SCT025 BKN040 02/M05 Q1004 NOSIG RMK 17010095
 
LHPP - Pecs / Pogany, Hungary
Ažurirano: 17/01/2018 17:45
NOT Current
Oblačno
Oblačno
 Pravac vetra SZ
Vetar: SZ 15 km/h
Temperatura: 3°C
Osećaj hladnoće: -1°C
Tačka rose: -1°C
Vlažnost: 75%
Pritisak: 1002 hPa
Oblaci: Oblačno
Vidljivost: 10 km
Cloud details: Partly Cloudy 305 m
Oblačno 2530 m
2018/01/17 16:45 LHPP 171645Z 31008KT 9999 SCT010 OVC083 03/M01 Q1002 NOSIG
LHUD - Szeged, Hungary
Ažurirano: 17/01/2018 23:45
Vedro
Vedro
 Pravac vetra ZSZ
Vetar: ZSZ 30 km/h
Temperatura: 2°C
Osećaj hladnoće: -3°C
Tačka rose: -2°C
Vlažnost: 75%
Pritisak: 1005 hPa
Pregled: Vedro
Vidljivost: greater than 10 km
2018/01/17 22:45 LHUD 172245Z 30016KT CAVOK 02/M02 Q1005
LRTR - Timisoara, Romania
Ažurirano: 18/01/2018 00:30
Vedro
Vedro
 Pravac vetra ZSZ
Vetar: ZSZ 17 km/h
Temperatura: 1°C
Osećaj hladnoće: -3°C
Tačka rose: -1°C
Vlažnost: 87%
Pritisak: 1004 hPa
Pregled: Vedro
Vidljivost: greater than 10 km
2018/01/17 23:30 LRTR 172330Z 30009KT CAVOK 01/M01 Q1004 R11/19//95
 
LRCV - Craiova, Romania
Ažurirano: 18/01/2018 00:30
Mostly Cloudy
Mostly Cloudy
 Pravac vetra Z
Vetar: Z 22 km/h
Temperatura: 1°C
Osećaj hladnoće: -4°C
Tačka rose: 0°C
Vlažnost: 93%
Pritisak: 993 hPa
Oblaci: Mostly Cloudy
Cloud details: Mostly Cloudy 3353 m
2018/01/17 23:30 LRCV 172330Z AUTO 28012KT BKN110/// 01/M00 Q0993
LBSF - Sofia, Bulgaria
Ažurirano: 18/01/2018 00:30
Oblačno
Oblačno
 Pravac vetra Z
Vetar: Z 39 km/h, Maks.: 57 km/h
Temperatura: 3°C
Osećaj hladnoće: -3°C
Tačka rose: 0°C
Vlažnost: 81%
Pritisak: 997 hPa
Oblaci: Oblačno
Vidljivost: 10 km
Cloud details: Few Clouds 549 m
Partly Cloudy 1250 m
Oblačno 1463 m
2018/01/17 23:30 LBSF 172330Z 28021G31KT 9999 FEW018 SCT041 OVC048 03/00 Q0997 R99/29//95 NOSIG
LWSK - Skoplje, Makedonija
Ažurirano: 18/01/2018 00:30
Light drizzle, Oblačno
Light drizzle, Oblačno
 Pravac vetra ZSZ
Vetar: ZSZ 7 km/h
Temperatura: 3°C
Osećaj hladnoće: 1°C
Tačka rose: 1°C
Vlažnost: 87%
Pritisak: 1003 hPa
Pregled: Light Drizzle
Oblaci: Oblačno
Vidljivost: 10 km
Cloud details: Partly Cloudy 610 m
Mostly Cloudy 1006 m
Oblačno 2134 m
2018/01/17 23:30 LWSK 172330Z 29004KT 9999 -DZ SCT020 BKN033 OVC070 03/01 Q1003 NOSIG
 
LYPG - Podgorica, Crna Gora
Ažurirano: 18/01/2018 00:30
Partly Cloudy
Partly Cloudy
 Pravac vetra SSI
Vetar: SSI 22 km/h
Temperatura: 7°C
Osećaj hladnoće: 4°C
Tačka rose: -5°C
Vlažnost: 42%
Pritisak: 1006 hPa
Oblaci: Partly Cloudy
Vidljivost: 10 km
Cloud details: Few Clouds 1524 m
Partly Cloudy 3048 m
2018/01/17 23:30 LYPG 172330Z 02012KT 340V040 9999 FEW050 SCT100 07/M05 Q1006 NOSIG
LQSA - Sarajevo, Bosna i Hercegovina
Ažurirano: 18/01/2018 00:00
Mostly Cloudy
Mostly Cloudy
 Pravac vetra S
Vetar: S 6 km/h
Temperatura: 0°C
Tačka rose: 0°C
Vlažnost: 100%
Pritisak: 1008 hPa
Oblaci: Mostly Cloudy
Vidljivost: 8 km
Cloud details: Partly Cloudy 1219 m
Mostly Cloudy 1524 m
2018/01/17 23:00 LQSA 172300Z 36003KT 340V040 8000 SCT040 BKN050 00/00 Q1008
LDOS - Osijek, Hrvatksa
Ažurirano: 18/01/2018 00:30
Vedro
Vedro
 Pravac vetra SZ
Vetar: SZ 28 km/h
Temperatura: 2°C
Osećaj hladnoće: -3°C
Tačka rose: -3°C
Vlažnost: 70%
Pritisak: 1008 hPa
Pregled: Vedro
Vidljivost: greater than 10 km
2018/01/17 23:30 LDOS 172330Z 31015KT CAVOK 02/M03 Q1008